sensor_id;sensor_type;location;lat;lon;timestamp;temperature;humidity
8792;DHT22;4432;50.890;4.744;2023-08-20T02:00:56;18.90;99.90
8792;DHT22;4432;50.890;4.744;2023-08-20T02:03:22;18.90;99.90
8792;DHT22;4432;50.890;4.744;2023-08-20T02:05:48;18.90;99.90
8792;DHT22;4432;50.890;4.744;2023-08-20T02:08:13;19.00;99.90
8792;DHT22;4432;50.890;4.744;2023-08-20T02:10:39;19.00;99.90
8792;DHT22;4432;50.890;4.744;2023-08-20T02:13:05;19.10;99.90
8792;DHT22;4432;50.890;4.744;2023-08-20T02:15:32;19.10;99.90
8792;DHT22;4432;50.890;4.744;2023-08-20T02:17:58;19.10;99.90
8792;DHT22;4432;50.890;4.744;2023-08-20T02:20:24;19.10;99.90
8792;DHT22;4432;50.890;4.744;2023-08-20T02:22:49;19.00;99.90
8792;DHT22;4432;50.890;4.744;2023-08-20T02:25:15;19.00;99.90
8792;DHT22;4432;50.890;4.744;2023-08-20T02:27:41;19.00;99.90
8792;DHT22;4432;50.890;4.744;2023-08-20T02:30:07;19.10;99.90
8792;DHT22;4432;50.890;4.744;2023-08-20T02:32:33;19.00;99.90
8792;DHT22;4432;50.890;4.744;2023-08-20T02:34:59;19.00;99.90
8792;DHT22;4432;50.890;4.744;2023-08-20T02:37:24;18.90;99.90
8792;DHT22;4432;50.890;4.744;2023-08-20T02:39:50;18.80;99.90
8792;DHT22;4432;50.890;4.744;2023-08-20T02:42:16;18.70;99.90
8792;DHT22;4432;50.890;4.744;2023-08-20T02:44:41;18.70;99.90
8792;DHT22;4432;50.890;4.744;2023-08-20T02:47:07;18.60;99.90
8792;DHT22;4432;50.890;4.744;2023-08-20T02:49:33;18.50;99.90
8792;DHT22;4432;50.890;4.744;2023-08-20T02:51:58;18.40;99.90
8792;DHT22;4432;50.890;4.744;2023-08-20T02:54:24;18.30;99.90
8792;DHT22;4432;50.890;4.744;2023-08-20T02:56:51;18.20;99.90
8792;DHT22;4432;50.890;4.744;2023-08-20T02:59:17;18.10;99.90
8792;DHT22;4432;50.890;4.744;2023-08-20T07:21:51;21.10;99.90
8792;DHT22;4432;50.890;4.744;2023-08-20T07:24:17;21.20;99.90
8792;DHT22;4432;50.890;4.744;2023-08-20T07:26:43;21.20;99.90
8792;DHT22;4432;50.890;4.744;2023-08-20T07:29:09;21.30;99.90
8792;DHT22;4432;50.890;4.744;2023-08-20T07:31:35;21.30;99.90
8792;DHT22;4432;50.890;4.744;2023-08-20T07:34:02;21.40;99.90
8792;DHT22;4432;50.890;4.744;2023-08-20T07:36:28;21.50;99.90
8792;DHT22;4432;50.890;4.744;2023-08-20T07:38:55;21.60;99.90
8792;DHT22;4432;50.890;4.744;2023-08-20T07:41:21;21.60;99.90
8792;DHT22;4432;50.890;4.744;2023-08-20T07:43:48;21.60;99.90
8792;DHT22;4432;50.890;4.744;2023-08-20T07:46:14;21.70;99.90
8792;DHT22;4432;50.890;4.744;2023-08-20T07:48:41;21.80;99.90
8792;DHT22;4432;50.890;4.744;2023-08-20T07:51:07;21.90;99.90
8792;DHT22;4432;50.890;4.744;2023-08-20T07:53:34;22.00;99.90
8792;DHT22;4432;50.890;4.744;2023-08-20T07:56:03;22.10;99.90
8792;DHT22;4432;50.890;4.744;2023-08-20T07:58:28;22.10;99.90
8792;DHT22;4432;50.890;4.744;2023-08-20T08:00:57;22.10;99.90
8792;DHT22;4432;50.890;4.744;2023-08-20T08:03:25;22.10;99.90
8792;DHT22;4432;50.890;4.744;2023-08-20T08:05:52;22.20;99.90
8792;DHT22;4432;50.890;4.744;2023-08-20T08:08:20;22.20;99.90
8792;DHT22;4432;50.890;4.744;2023-08-20T08:10:46;22.20;99.90
8792;DHT22;4432;50.890;4.744;2023-08-20T08:13:13;22.40;99.90
8792;DHT22;4432;50.890;4.744;2023-08-20T08:15:39;22.50;99.90
8792;DHT22;4432;50.890;4.744;2023-08-20T08:18:05;22.60;99.90
8792;DHT22;4432;50.890;4.744;2023-08-20T08:20:31;22.60;99.90
8792;DHT22;4432;50.890;4.744;2023-08-20T10:44:55;27.20;99.30
8792;DHT22;4432;50.890;4.744;2023-08-20T10:47:17;27.30;98.90
8792;DHT22;4432;50.890;4.744;2023-08-20T10:49:43;27.20;98.70
8792;DHT22;4432;50.890;4.744;2023-08-20T10:52:09;27.10;99.70
8792;DHT22;4432;50.890;4.744;2023-08-20T10:54:35;27.30;99.90
8792;DHT22;4432;50.890;4.744;2023-08-20T10:57:01;27.40;99.90
8792;DHT22;4432;50.890;4.744;2023-08-20T10:59:29;27.20;99.90
8792;DHT22;4432;50.890;4.744;2023-08-20T11:01:59;27.50;99.80
8792;DHT22;4432;50.890;4.744;2023-08-20T11:04:28;27.50;99.00
8792;DHT22;4432;50.890;4.744;2023-08-20T11:06:56;27.30;99.50
8792;DHT22;4432;50.890;4.744;2023-08-20T11:09:24;27.30;99.90
8792;DHT22;4432;50.890;4.744;2023-08-20T11:11:53;27.50;99.90
8792;DHT22;4432;50.890;4.744;2023-08-20T11:14:20;27.50;99.90
8792;DHT22;4432;50.890;4.744;2023-08-20T11:16:46;27.60;99.90
8792;DHT22;4432;50.890;4.744;2023-08-20T11:19:13;27.70;99.90
8792;DHT22;4432;50.890;4.744;2023-08-20T11:21:42;27.70;99.10
8792;DHT22;4432;50.890;4.744;2023-08-20T11:24:09;27.70;99.90
8792;DHT22;4432;50.890;4.744;2023-08-20T11:26:37;27.70;99.50
8792;DHT22;4432;50.890;4.744;2023-08-20T11:29:14;27.30;99.90
8792;DHT22;4432;50.890;4.744;2023-08-20T11:31:45;27.00;99.90
8792;DHT22;4432;50.890;4.744;2023-08-20T11:34:12;26.80;99.90
8792;DHT22;4432;50.890;4.744;2023-08-20T11:36:39;26.40;99.90
8792;DHT22;4432;50.890;4.744;2023-08-20T11:39:07;26.60;99.90
8792;DHT22;4432;50.890;4.744;2023-08-20T11:41:36;26.90;99.90
8792;DHT22;4432;50.890;4.744;2023-08-20T11:44:02;26.80;99.90
8792;DHT22;4432;50.890;4.744;2023-08-20T16:00:41;27.80;99.90
8792;DHT22;4432;50.890;4.744;2023-08-20T16:06:37;28.00;99.90
8792;DHT22;4432;50.890;4.744;2023-08-20T16:09:03;28.10;99.90
8792;DHT22;4432;50.890;4.744;2023-08-20T16:11:30;27.90;99.90
8792;DHT22;4432;50.890;4.744;2023-08-20T16:13:56;27.70;99.90
8792;DHT22;4432;50.890;4.744;2023-08-20T16:16:22;27.60;99.90
8792;DHT22;4432;50.890;4.744;2023-08-20T16:18:48;27.50;99.90
8792;DHT22;4432;50.890;4.744;2023-08-20T16:21:14;27.50;99.90
8792;DHT22;4432;50.890;4.744;2023-08-20T16:23:40;27.60;99.90
8792;DHT22;4432;50.890;4.744;2023-08-20T16:26:06;27.70;99.90
8792;DHT22;4432;50.890;4.744;2023-08-20T16:28:31;27.80;99.90
8792;DHT22;4432;50.890;4.744;2023-08-20T16:30:57;27.90;99.90
8792;DHT22;4432;50.890;4.744;2023-08-20T16:33:23;27.90;99.90
8792;DHT22;4432;50.890;4.744;2023-08-20T16:35:52;27.90;99.90
8792;DHT22;4432;50.890;4.744;2023-08-20T16:38:18;27.80;99.90
8792;DHT22;4432;50.890;4.744;2023-08-20T16:40:44;27.60;99.90
8792;DHT22;4432;50.890;4.744;2023-08-20T16:43:10;27.60;99.90
8792;DHT22;4432;50.890;4.744;2023-08-20T16:45:35;27.50;99.90
8792;DHT22;4432;50.890;4.744;2023-08-20T16:48:02;27.50;99.90
8792;DHT22;4432;50.890;4.744;2023-08-20T16:50:28;27.50;99.90
8792;DHT22;4432;50.890;4.744;2023-08-20T16:52:54;27.40;99.90
8792;DHT22;4432;50.890;4.744;2023-08-20T16:55:20;27.40;99.90
8792;DHT22;4432;50.890;4.744;2023-08-20T16:57:45;27.30;99.90
8792;DHT22;4432;50.890;4.744;2023-08-20T17:00:11;27.30;99.90
8792;DHT22;4432;50.890;4.744;2023-08-20T22:25:23;21.00;99.90
8792;DHT22;4432;50.890;4.744;2023-08-20T22:27:49;21.10;99.90
8792;DHT22;4432;50.890;4.744;2023-08-20T22:30:14;21.20;99.90
8792;DHT22;4432;50.890;4.744;2023-08-20T22:32:40;21.10;99.90
8792;DHT22;4432;50.890;4.744;2023-08-20T22:35:07;21.00;99.90
8792;DHT22;4432;50.890;4.744;2023-08-20T22:37:33;20.90;99.90
8792;DHT22;4432;50.890;4.744;2023-08-20T22:39:59;20.90;99.90
8792;DHT22;4432;50.890;4.744;2023-08-20T22:42:24;20.90;99.90
8792;DHT22;4432;50.890;4.744;2023-08-20T22:44:50;20.80;99.90
8792;DHT22;4432;50.890;4.744;2023-08-20T22:47:16;20.70;99.90
8792;DHT22;4432;50.890;4.744;2023-08-20T22:49:42;20.70;99.90
8792;DHT22;4432;50.890;4.744;2023-08-20T22:52:08;20.70;99.90
8792;DHT22;4432;50.890;4.744;2023-08-20T22:54:34;20.70;99.90
8792;DHT22;4432;50.890;4.744;2023-08-20T22:57:02;20.70;99.90
8792;DHT22;4432;50.890;4.744;2023-08-20T22:59:28;20.60;99.90
8792;DHT22;4432;50.890;4.744;2023-08-20T23:01:53;20.60;99.90
8792;DHT22;4432;50.890;4.744;2023-08-20T23:04:19;20.50;99.90
8792;DHT22;4432;50.890;4.744;2023-08-20T23:06:45;20.50;99.90
8792;DHT22;4432;50.890;4.744;2023-08-20T23:09:11;20.50;99.90
8792;DHT22;4432;50.890;4.744;2023-08-20T23:11:36;20.50;99.90
8792;DHT22;4432;50.890;4.744;2023-08-20T23:14:02;20.40;99.90
8792;DHT22;4432;50.890;4.744;2023-08-20T23:16:28;20.40;99.90
8792;DHT22;4432;50.890;4.744;2023-08-20T23:18:53;20.40;99.90
8792;DHT22;4432;50.890;4.744;2023-08-20T23:21:19;20.40;99.90
8792;DHT22;4432;50.890;4.744;2023-08-20T23:23:45;20.30;99.90
8792;DHT22;4432;50.890;4.744;2023-08-20T23:26:10;20.30;99.90
8792;DHT22;4432;50.890;4.744;2023-08-20T23:28:36;20.30;99.90
8792;DHT22;4432;50.890;4.744;2023-08-20T23:31:05;20.20;99.90
8792;DHT22;4432;50.890;4.744;2023-08-20T23:33:31;20.10;99.90
8792;DHT22;4432;50.890;4.744;2023-08-20T23:35:57;20.00;99.90
8792;DHT22;4432;50.890;4.744;2023-08-20T23:38:23;19.80;99.90
8792;DHT22;4432;50.890;4.744;2023-08-20T23:40:48;19.80;99.90
8792;DHT22;4432;50.890;4.744;2023-08-20T23:43:14;19.70;99.90
8792;DHT22;4432;50.890;4.744;2023-08-20T23:45:40;19.70;99.90
8792;DHT22;4432;50.890;4.744;2023-08-20T23:48:06;19.70;99.90
8792;DHT22;4432;50.890;4.744;2023-08-20T23:50:32;19.70;99.90
8792;DHT22;4432;50.890;4.744;2023-08-20T23:52:57;19.70;99.90
8792;DHT22;4432;50.890;4.744;2023-08-20T23:55:23;19.60;99.90
8792;DHT22;4432;50.890;4.744;2023-08-20T23:57:49;19.60;99.90
